Time;durP1;ratioP1;P1;durP2;ratioP2;P2;SDS_P1;SDS_P2;PMS_P1;PMS_P2;Temp;Humidity;BMP_temperature;BMP_pressure;BME280_temperature;BME280_humidity;BME280_pressure;Samples;Min_cycle;Max_cycle;Signal;HPM_P1;HPM_P2
2021/12/17 00:01:42;;;;;;;153.73;37.38;;;9.00;99.90;;;;;;5009861;28;20026;-85
2021/12/17 00:04:24;;;;;;;127.93;32.35;;;9.00;99.90;;;;;;5013977;28;20037;-86
2021/12/17 00:06:50;;;;;;;114.70;32.00;;;9.00;99.90;;;;;;5009201;28;20033;-87
2021/12/17 00:09:16;;;;;;;131.65;34.25;;;9.00;99.90;;;;;;5012793;28;20034;-87
2021/12/17 00:11:41;;;;;;;129.00;35.58;;;9.00;99.90;;;;;;5013322;28;20034;-87
2021/12/17 00:14:07;;;;;;;113.10;32.92;;;9.00;99.90;;;;;;5009142;28;20080;-87
2021/12/17 00:16:38;;;;;;;102.50;33.08;;;9.00;99.90;;;;;;5011370;28;20124;-87
2021/12/17 00:49:00;;;;;;;108.63;27.50;;;8.70;99.90;;;;;;5013750;28;20092;-87
2021/12/17 00:54:22;;;;;;;126.07;30.52;;;8.70;99.90;;;;;;5014396;28;20149;-87
2021/12/17 00:56:53;;;;;;;141.18;32.40;;;8.70;99.90;;;;;;5011445;28;20101;-87
2021/12/17 00:59:20;;;;;;;125.32;30.33;;;8.70;99.90;;;;;;4996530;28;20026;-86
2021/12/17 01:01:46;;;;;;;144.18;33.38;;;8.70;99.90;;;;;;5009957;28;20034;-86
2021/12/17 01:04:13;;;;;;;143.90;31.40;;;8.70;99.90;;;;;;5012866;28;20028;-86
2021/12/17 01:06:39;;;;;;;104.68;30.13;;;8.70;99.90;;;;;;5008611;28;20030;-87
2021/12/17 01:09:06;;;;;;;135.25;30.33;;;8.70;99.90;;;;;;5013078;28;20152;-87
2021/12/17 01:11:32;;;;;;;135.15;31.75;;;8.80;99.90;;;;;;5010920;28;20064;-86
2021/12/17 01:13:58;;;;;;;120.07;30.95;;;8.80;99.90;;;;;;5010748;28;20499;-87
2021/12/17 01:16:24;;;;;;;110.25;29.33;;;8.80;99.90;;;;;;5014388;28;20034;-86
2021/12/17 01:40:50;;;;;;;118.10;31.42;;;8.90;99.90;;;;;;5009080;28;20022;-86
2021/12/17 01:43:00;;;;;;;112.50;31.80;;;8.90;99.90;;;;;;5014487;28;20045;-86
2021/12/17 01:45:30;;;;;;;131.27;31.10;;;8.90;99.90;;;;;;5015077;28;20030;-87
2021/12/17 01:47:58;;;;;;;139.32;32.65;;;8.90;99.90;;;;;;5014361;28;20470;-87
2021/12/17 02:01:20;;;;;;;132.13;32.33;;;8.90;99.90;;;;;;5017276;28;20509;-86
2021/12/17 02:03:46;;;;;;;137.05;30.63;;;8.90;99.90;;;;;;5015611;28;20030;-86
2021/12/17 02:06:12;;;;;;;129.50;30.13;;;8.90;99.90;;;;;;5008316;28;20053;-87
2021/12/17 02:08:37;;;;;;;144.57;30.20;;;8.90;99.90;;;;;;5014857;28;20030;-87
2021/12/17 02:11:45;;;;;;;135.15;28.55;;;8.90;99.90;;;;;;5015780;28;20028;-86
2021/12/17 02:30:36;;;;;;;145.63;31.88;;;8.80;99.90;;;;;;5002973;28;20045;-87
2021/12/17 02:33:02;;;;;;;142.98;29.65;;;8.80;99.90;;;;;;5010619;28;20053;-87
2021/12/17 02:35:40;;;;;;;155.10;30.60;;;8.80;99.90;;;;;;5013651;28;20030;-86
2021/12/17 02:38:07;;;;;;;144.70;31.42;;;8.80;99.90;;;;;;5013479;28;20026;-87
2021/12/17 02:45:46;;;;;;;139.15;30.40;;;8.80;99.90;;;;;;5013006;28;20026;-87
2021/12/17 02:48:16;;;;;;;174.70;31.02;;;8.80;99.90;;;;;;5014604;28;20073;-87
2021/12/17 02:50:49;;;;;;;132.77;28.02;;;8.80;99.90;;;;;;5011158;28;20113;-87
2021/12/17 02:53:17;;;;;;;131.65;28.75;;;8.70;99.90;;;;;;5030217;28;20017;-87
2021/12/17 02:55:46;;;;;;;167.10;28.92;;;8.80;99.90;;;;;;5014661;28;20056;-87
2021/12/17 02:58:12;;;;;;;156.52;29.77;;;8.80;99.90;;;;;;5013801;28;20072;-87
2021/12/17 03:00:40;;;;;;;139.77;28.45;;;8.80;99.90;;;;;;5012605;28;20482;-87
2021/12/17 03:03:07;;;;;;;153.38;30.30;;;8.80;99.90;;;;;;5014048;28;20494;-87
2021/12/17 03:05:35;;;;;;;139.57;29.17;;;8.80;99.90;;;;;;5009991;28;20025;-87
2021/12/17 03:08:00;;;;;;;210.23;30.50;;;8.80;99.90;;;;;;5013708;28;20034;-87
2021/12/17 03:10:26;;;;;;;165.98;31.52;;;8.80;99.90;;;;;;5012918;28;20022;-87
2021/12/17 03:12:58;;;;;;;187.48;29.48;;;8.80;99.90;;;;;;5013358;28;20054;-88
2021/12/17 03:15:48;;;;;;;134.32;27.40;;;8.80;99.90;;;;;;5013063;28;20029;-88
2021/12/17 03:23:41;;;;;;;157.38;28.00;;;8.70;99.90;;;;;;5024579;28;20052;-88
2021/12/17 03:26:27;;;;;;;196.05;29.25;;;8.80;99.90;;;;;;4995903;28;20026;-88
2021/12/17 03:28:57;;;;;;;175.93;30.88;;;8.80;99.90;;;;;;5011020;28;20072;-87
2021/12/17 03:31:24;;;;;;;183.38;29.60;;;8.70;99.90;;;;;;5012992;28;20124;-88
2021/12/17 03:33:52;;;;;;;151.18;29.45;;;8.80;99.90;;;;;;5012158;28;20028;-88
2021/12/17 03:36:19;;;;;;;161.50;30.60;;;8.80;99.90;;;;;;5013232;28;20022;-87
2021/12/17 03:38:48;;;;;;;183.13;31.75;;;8.80;99.90;;;;;;5012888;28;20022;-88
2021/12/17 03:41:19;;;;;;;153.27;31.50;;;8.80;99.90;;;;;;5013422;28;20048;-87
2021/12/17 03:43:47;;;;;;;164.23;30.88;;;8.80;99.90;;;;;;5010231;28;20436;-87
2021/12/17 03:46:12;;;;;;;149.07;31.27;;;8.80;99.90;;;;;;5011566;28;20021;-87
2021/12/17 03:48:40;;;;;;;189.00;31.48;;;8.80;99.90;;;;;;5004375;28;20092;-87
2021/12/17 03:51:13;;;;;;;173.00;32.25;;;8.80;99.90;;;;;;5011717;28;20049;-87
2021/12/17 03:53:40;;;;;;;160.75;31.27;;;8.80;99.90;;;;;;5015345;28;20133;-87
2021/12/17 03:56:06;;;;;;;170.35;31.17;;;8.70;99.90;;;;;;5011359;28;20029;-87
2021/12/17 03:58:32;;;;;;;176.05;30.67;;;8.80;99.90;;;;;;4999796;28;20022;-87
2021/12/17 04:00:57;;;;;;;193.93;30.55;;;8.80;99.90;;;;;;5010798;28;20497;-87
2021/12/17 04:03:23;;;;;;;149.35;26.25;;;8.80;99.90;;;;;;5006275;28;20072;-88
2021/12/17 04:05:48;;;;;;;182.43;29.90;;;8.70;99.90;;;;;;5019466;28;20025;-87
2021/12/17 04:08:14;;;;;;;170.20;28.98;;;8.80;99.90;;;;;;5012918;28;20486;-88
2021/12/17 04:10:44;;;;;;;169.40;31.38;;;8.70;99.90;;;;;;5005541;28;20332;-88
2021/12/17 04:13:31;;;;;;;164.15;30.80;;;8.70;99.90;;;;;;5003839;28;20059;-87
2021/12/17 04:16:01;;;;;;;171.25;28.95;;;8.70;99.90;;;;;;5011448;28;20018;-87
2021/12/17 04:18:27;;;;;;;196.88;30.15;;;8.70;99.90;;;;;;5012566;28;20076;-88
2021/12/17 04:20:53;;;;;;;188.80;29.27;;;8.80;99.90;;;;;;5010952;28;20120;-87
2021/12/17 04:23:20;;;;;;;163.93;29.33;;;8.80;99.90;;;;;;5012152;28;20088;-87
2021/12/17 04:25:47;;;;;;;172.38;33.80;;;8.70;99.90;;;;;;5005914;28;20022;-87
2021/12/17 04:28:12;;;;;;;153.52;30.60;;;8.80;99.90;;;;;;5008803;28;20030;-87
2021/12/17 04:30:38;;;;;;;165.88;31.60;;;8.80;99.90;;;;;;5010265;28;20088;-87
2021/12/17 04:33:04;;;;;;;176.80;32.08;;;8.80;99.90;;;;;;5011375;28;20474;-87
2021/12/17 04:35:30;;;;;;;167.02;29.20;;;8.70;99.90;;;;;;5011164;28;20045;-87
2021/12/17 04:37:55;;;;;;;169.60;29.25;;;8.80;99.90;;;;;;5004281;28;20109;-87
2021/12/17 04:40:23;;;;;;;178.90;32.40;;;8.80;99.90;;;;;;5005138;28;20121;-87
2021/12/17 04:45:21;;;;;;;199.07;31.42;;;8.80;99.90;;;;;;5012026;28;20065;-87
2021/12/17 04:58:44;;;;;;;152.73;29.83;;;8.80;99.90;;;;;;5009676;28;20041;-87
2021/12/17 05:01:13;;;;;;;156.60;30.52;;;8.80;99.90;;;;;;5014871;28;20521;-87
2021/12/17 05:03:39;;;;;;;163.55;29.60;;;8.70;99.90;;;;;;5014646;28;20108;-88
2021/12/17 05:06:04;;;;;;;164.45;29.90;;;8.70;99.90;;;;;;5011932;28;20030;-87
2021/12/17 05:08:30;;;;;;;149.30;29.95;;;8.70;99.90;;;;;;5013699;28;20387;-87
2021/12/17 05:19:41;;;;;;;162.70;29.95;;;8.70;99.90;;;;;;5016782;28;20088;-87
2021/12/17 05:22:10;;;;;;;163.52;28.65;;;8.80;99.90;;;;;;5011909;28;20100;-87
2021/12/17 05:24:36;;;;;;;147.35;29.90;;;8.80;99.90;;;;;;5011456;28;20489;-87
2021/12/17 05:27:02;;;;;;;138.68;26.73;;;8.70;99.90;;;;;;5016333;28;20034;-87
2021/12/17 05:29:28;;;;;;;132.20;29.02;;;8.80;99.90;;;;;;5015013;28;20112;-88
2021/12/17 05:31:53;;;;;;;154.25;28.42;;;8.80;99.90;;;;;;5013387;28;20060;-87
2021/12/17 05:34:19;;;;;;;159.02;29.73;;;8.80;99.90;;;;;;5014863;28;20397;-87
2021/12/17 05:36:44;;;;;;;156.85;27.23;;;8.80;99.90;;;;;;5015762;28;20458;-87
2021/12/17 05:39:10;;;;;;;176.05;30.55;;;8.80;99.90;;;;;;5016246;28;20095;-87
2021/12/17 05:41:35;;;;;;;166.50;27.33;;;8.80;99.90;;;;;;5011068;28;20022;-89
2021/12/17 05:44:01;;;;;;;168.70;26.73;;;8.80;99.90;;;;;;5013924;28;20045;-89
2021/12/17 05:46:48;;;;;;;128.77;25.08;;;8.70;99.90;;;;;;5011336;28;20027;-89
2021/12/17 05:49:12;;;;;;;128.40;24.67;;;8.70;99.90;;;;;;5007797;28;20064;-89
2021/12/17 05:51:37;;;;;;;146.65;25.25;;;8.70;99.90;;;;;;5011721;28;20057;-89
2021/12/17 05:54:03;;;;;;;154.88;25.95;;;8.70;99.90;;;;;;5016181;28;20033;-88
2021/12/17 05:56:28;;;;;;;144.18;26.05;;;8.70;99.90;;;;;;5016517;28;20057;-89
2021/12/17 05:58:56;;;;;;;124.88;23.95;;;8.70;99.90;;;;;;5009452;28;20026;-88
2021/12/17 06:01:21;;;;;;;130.75;25.73;;;8.70;99.90;;;;;;5014827;28;20030;-89
2021/12/17 06:03:47;;;;;;;109.38;22.63;;;8.70;99.90;;;;;;5016514;28;20422;-88
2021/12/17 06:06:24;;;;;;;128.98;24.00;;;8.70;99.90;;;;;;5010903;28;20028;-89
2021/12/17 06:08:49;;;;;;;118.85;24.20;;;8.70;99.90;;;;;;5013535;28;20117;-89
2021/12/17 06:11:15;;;;;;;112.30;22.98;;;8.70;99.90;;;;;;5014783;28;20117;-88
2021/12/17 06:13:40;;;;;;;109.05;23.90;;;8.70;99.90;;;;;;5020590;28;20390;-88
2021/12/17 06:16:06;;;;;;;114.80;22.67;;;8.70;99.90;;;;;;5010601;28;20454;-88
2021/12/17 06:18:31;;;;;;;119.53;24.02;;;8.70;99.90;;;;;;5012934;28;20036;-88
2021/12/17 06:20:57;;;;;;;131.85;23.95;;;8.70;99.90;;;;;;5029142;28;20042;-89
2021/12/17 06:23:22;;;;;;;103.22;22.27;;;8.70;99.90;;;;;;5008926;28;20053;-88
2021/12/17 06:25:48;;;;;;;106.47;21.35;;;8.70;99.90;;;;;;5012897;28;20064;-89
2021/12/17 06:28:14;;;;;;;111.03;22.70;;;8.60;99.90;;;;;;5014263;28;20481;-88
2021/12/17 06:30:42;;;;;;;104.13;22.60;;;8.60;99.90;;;;;;4997029;28;20031;-89
2021/12/17 06:33:08;;;;;;;125.07;21.45;;;8.60;99.90;;;;;;5011970;28;20405;-89
2021/12/17 06:35:33;;;;;;;101.82;21.30;;;8.60;99.90;;;;;;5014334;28;20026;-89
2021/12/17 06:37:59;;;;;;;102.30;22.08;;;8.60;99.90;;;;;;5018997;28;20033;-88
2021/12/17 06:40:25;;;;;;;95.90;20.98;;;8.60;99.90;;;;;;5012480;28;20030;-90
2021/12/17 06:42:50;;;;;;;112.05;21.13;;;8.60;99.90;;;;;;5022051;28;20049;-89
2021/12/17 06:45:30;;;;;;;95.38;21.08;;;8.60;99.90;;;;;;5006893;28;20062;-89
2021/12/17 06:47:58;;;;;;;98.85;18.98;;;8.60;99.90;;;;;;5012849;28;20084;-88
2021/12/17 06:58:51;;;;;;;85.55;17.05;;;8.60;99.90;;;;;;5016750;28;20037;-89
2021/12/17 07:05:53;;;;;;;73.60;15.80;;;8.60;99.90;;;;;;5015206;28;20038;-90
2021/12/17 07:17:21;;;;;;;95.05;18.42;;;8.50;99.90;;;;;;5000440;28;20049;-90
2021/12/17 07:20:44;;;;;;;82.55;16.80;;;8.50;99.90;;;;;;5011353;28;20452;-90
2021/12/17 07:33:20;;;;;;;98.72;18.17;;;8.60;99.90;;;;;;4999129;28;20037;-90
2021/12/17 07:35:49;;;;;;;95.43;16.98;;;8.50;99.90;;;;;;5010534;28;20026;-90
2021/12/17 07:40:59;;;;;;;68.95;14.98;;;8.60;99.90;;;;;;4996042;28;20450;-92
2021/12/17 07:43:28;;;;;;;72.50;15.25;;;8.60;99.90;;;;;;5006958;28;20042;-91
2021/12/17 07:45:55;;;;;;;79.95;15.82;;;8.60;99.90;;;;;;5006420;28;20084;-90
2021/12/17 07:48:22;;;;;;;69.55;16.15;;;8.50;99.90;;;;;;5004001;28;20037;-89
2021/12/17 07:50:48;;;;;;;72.60;15.23;;;8.50;99.90;;;;;;5004750;28;20510;-89
2021/12/17 07:53:15;;;;;;;83.65;16.70;;;8.50;99.90;;;;;;5007456;28;20031;-89
2021/12/17 07:55:40;;;;;;;87.00;16.33;;;8.50;99.90;;;;;;5011556;28;20041;-89
2021/12/17 07:58:06;;;;;;;88.38;17.00;;;8.50;99.90;;;;;;5011475;28;20490;-89
2021/12/17 08:00:32;;;;;;;66.90;14.88;;;8.40;99.90;;;;;;5009581;28;20026;-88
2021/12/17 08:02:57;;;;;;;86.05;16.02;;;8.40;99.90;;;;;;5012921;28;20046;-90
2021/12/17 08:05:23;;;;;;;104.43;17.77;;;8.40;99.90;;;;;;5001257;28;20037;-89
2021/12/17 08:07:48;;;;;;;75.93;15.63;;;8.40;99.90;;;;;;5009469;28;20064;-88
2021/12/17 08:10:14;;;;;;;80.55;15.90;;;8.40;99.90;;;;;;5015176;28;20033;-87
2021/12/17 08:12:39;;;;;;;87.47;19.20;;;8.40;99.90;;;;;;5013002;28;20021;-88
2021/12/17 08:15:08;;;;;;;76.75;16.63;;;8.40;99.90;;;;;;5012025;28;20032;-88
2021/12/17 08:28:16;;;;;;;78.28;16.88;;;8.60;99.90;;;;;;5009833;28;20034;-88
2021/12/17 08:30:42;;;;;;;78.57;17.08;;;8.60;99.90;;;;;;5013741;28;20032;-86
2021/12/17 08:33:08;;;;;;;77.65;15.68;;;8.60;99.90;;;;;;5012266;28;20461;-88
2021/12/17 08:35:35;;;;;;;80.90;16.88;;;8.60;99.90;;;;;;5009177;28;20036;-89
2021/12/17 08:38:04;;;;;;;76.10;16.48;;;8.60;99.90;;;;;;5011969;28;20064;-88
2021/12/17 08:40:30;;;;;;;74.57;15.82;;;8.60;99.90;;;;;;5009081;28;20061;-89
2021/12/17 08:42:56;;;;;;;73.95;16.15;;;8.60;99.90;;;;;;5010941;28;20034;-88
2021/12/17 08:45:21;;;;;;;65.28;15.65;;;8.60;99.90;;;;;;5010694;28;20482;-88
2021/12/17 08:47:48;;;;;;;65.95;15.75;;;8.70;99.90;;;;;;5005051;28;20025;-88
2021/12/17 08:50:14;;;;;;;67.78;15.30;;;8.70;99.90;;;;;;5005180;28;20068;-88
2021/12/17 08:52:41;;;;;;;74.97;15.63;;;8.70;99.90;;;;;;5011123;28;20022;-89
2021/12/17 08:55:07;;;;;;;68.57;15.77;;;8.70;99.90;;;;;;5010763;28;20121;-88
2021/12/17 08:57:32;;;;;;;60.78;14.38;;;8.70;99.90;;;;;;5012515;28;20018;-88
2021/12/17 09:00:04;;;;;;;81.05;17.80;;;8.70;99.90;;;;;;5012546;28;20410;-89
2021/12/17 09:02:30;;;;;;;90.05;16.45;;;8.70;99.90;;;;;;5012504;28;20049;-88
2021/12/17 09:04:55;;;;;;;78.43;17.27;;;8.70;99.90;;;;;;5010165;28;20478;-88
2021/12/17 09:07:21;;;;;;;95.93;18.08;;;8.70;99.90;;;;;;5012300;28;20367;-88
2021/12/17 09:09:48;;;;;;;93.53;17.65;;;8.70;99.90;;;;;;5013027;28;20033;-88
2021/12/17 09:12:13;;;;;;;83.47;16.20;;;8.70;99.90;;;;;;5014694;28;20036;-88
2021/12/17 09:14:39;;;;;;;96.72;18.98;;;8.80;99.90;;;;;;5015034;28;20025;-89
2021/12/17 09:17:05;;;;;;;84.57;16.73;;;8.80;99.90;;;;;;5010958;28;20501;-89
2021/12/17 09:19:32;;;;;;;74.38;16.05;;;8.80;99.90;;;;;;5010704;28;20049;-87
2021/12/17 09:21:58;;;;;;;103.38;19.25;;;8.80;99.90;;;;;;5000470;28;20034;-88
2021/12/17 09:24:23;;;;;;;88.60;18.30;;;8.80;99.90;;;;;;5010524;28;20030;-87
2021/12/17 09:26:49;;;;;;;76.97;17.05;;;8.80;99.90;;;;;;5011552;28;20394;-87
2021/12/17 09:29:14;;;;;;;63.25;15.90;;;8.90;99.90;;;;;;5013561;28;20050;-87
2021/12/17 09:31:41;;;;;;;66.15;14.65;;;8.90;99.90;;;;;;5014376;28;20037;-87
2021/12/17 09:34:07;;;;;;;59.65;15.45;;;8.80;99.90;;;;;;5015643;28;20022;-89
2021/12/17 09:36:33;;;;;;;64.78;16.63;;;8.90;99.90;;;;;;5011248;28;20048;-88
2021/12/17 09:38:59;;;;;;;72.60;16.33;;;8.80;99.90;;;;;;5015853;28;20042;-88
2021/12/17 09:41:26;;;;;;;54.50;13.93;;;8.80;99.90;;;;;;5013602;28;20475;-88
2021/12/17 09:43:52;;;;;;;44.67;11.98;;;8.90;99.90;;;;;;5016423;28;20042;-89
2021/12/17 09:46:19;;;;;;;59.95;13.13;;;8.90;99.90;;;;;;5015288;28;20026;-88
2021/12/17 09:48:47;;;;;;;45.10;12.50;;;8.90;99.90;;;;;;5015159;28;20083;-88
2021/12/17 09:51:14;;;;;;;42.15;11.82;;;8.80;99.90;;;;;;5014723;28;20026;-88
2021/12/17 09:53:40;;;;;;;48.83;12.95;;;8.90;99.90;;;;;;5002622;28;20751;-86
2021/12/17 09:56:06;;;;;;;47.50;10.73;;;8.90;99.90;;;;;;5014755;28;20116;-87
2021/12/17 09:58:32;;;;;;;49.03;11.88;;;8.90;99.90;;;;;;5014973;28;20049;-87
2021/12/17 10:00:58;;;;;;;38.90;10.93;;;8.90;99.90;;;;;;5014550;28;20025;-87
2021/12/17 10:03:27;;;;;;;35.85;9.57;;;8.90;99.90;;;;;;5024485;28;20046;-88
2021/12/17 10:05:53;;;;;;;34.55;8.57;;;8.90;99.90;;;;;;5015258;28;20101;-87
2021/12/17 10:08:21;;;;;;;33.05;7.50;;;8.90;99.90;;;;;;5011969;28;20053;-88
2021/12/17 10:11:02;;;;;;;29.88;8.02;;;8.90;99.90;;;;;;5020274;28;20049;-88
2021/12/17 10:13:34;;;;;;;27.67;8.10;;;8.90;99.90;;;;;;5016817;28;20026;-88
2021/12/17 10:16:06;;;;;;;26.73;6.80;;;8.80;99.90;;;;;;5015284;28;20497;-88
2021/12/17 10:18:44;;;;;;;21.25;5.95;;;8.90;99.90;;;;;;5014892;28;20125;-89
2021/12/17 10:21:16;;;;;;;22.08;6.40;;;8.90;99.90;;;;;;5013965;28;20058;-88
2021/12/17 10:23:43;;;;;;;22.77;6.43;;;8.90;99.90;;;;;;4999336;28;20045;-87
2021/12/17 10:26:15;;;;;;;24.02;5.15;;;8.80;99.90;;;;;;5014983;28;20042;-88
2021/12/17 10:28:58;;;;;;;17.87;4.83;;;8.90;99.90;;;;;;5011088;28;20030;-88
2021/12/17 10:31:24;;;;;;;21.50;6.00;;;8.80;99.90;;;;;;5013873;28;20034;-87
2021/12/17 10:33:52;;;;;;;20.75;5.70;;;8.80;99.90;;;;;;5007689;28;20589;-88
2021/12/17 10:36:36;;;;;;;22.27;5.63;;;8.80;99.90;;;;;;5012113;28;20080;-87
2021/12/17 10:39:25;;;;;;;23.23;6.25;;;8.80;99.90;;;;;;4998522;28;20035;-88
2021/12/17 10:41:51;;;;;;;24.58;6.90;;;8.90;99.90;;;;;;4997713;28;20037;-88
2021/12/17 10:44:20;;;;;;;18.75;5.95;;;8.90;99.90;;;;;;5010745;28;20078;-87
2021/12/17 10:47:15;;;;;;;17.35;5.22;;;8.90;99.90;;;;;;5009424;28;20474;-88
2021/12/17 10:50:03;;;;;;;21.40;6.35;;;8.90;99.90;;;;;;5012083;28;20561;-87
2021/12/17 10:52:54;;;;;;;17.70;5.65;;;8.90;99.90;;;;;;5007884;28;20084;-87
2021/12/17 10:55:23;;;;;;;15.20;5.55;;;8.80;99.90;;;;;;5013658;28;20055;-87
2021/12/17 10:57:50;;;;;;;20.42;6.80;;;8.80;99.90;;;;;;5010565;28;20037;-87
2021/12/17 11:00:17;;;;;;;17.55;6.53;;;8.70;99.90;;;;;;5005067;28;20528;-87
2021/12/17 11:02:53;;;;;;;16.73;5.57;;;8.70;99.90;;;;;;5003759;28;20038;-87
2021/12/17 11:05:20;;;;;;;18.98;5.90;;;8.60;99.90;;;;;;5014994;28;20426;-87
2021/12/17 11:07:46;;;;;;;16.75;5.93;;;8.60;99.90;;;;;;5008548;28;20029;-87
2021/12/17 11:10:15;;;;;;;16.17;5.32;;;8.60;99.90;;;;;;5013935;28;20026;-87
2021/12/17 11:12:42;;;;;;;15.73;5.68;;;8.60;99.90;;;;;;5014310;28;20038;-87
2021/12/17 11:15:30;;;;;;;12.63;5.45;;;8.60;99.90;;;;;;5014368;28;20117;-87
2021/12/17 11:17:59;;;;;;;10.45;3.83;;;8.50;99.90;;;;;;5011041;28;20565;-87
2021/12/17 11:20:26;;;;;;;7.70;3.42;;;8.60;99.90;;;;;;5013364;28;20073;-87
2021/12/17 11:22:53;;;;;;;11.38;4.45;;;8.60;99.90;;;;;;5012146;28;20494;-87
2021/12/17 11:25:21;;;;;;;11.52;4.05;;;8.60;99.90;;;;;;5016322;28;20375;-87
2021/12/17 11:27:47;;;;;;;10.38;3.63;;;8.60;99.90;;;;;;5012359;28;20029;-87
2021/12/17 11:30:16;;;;;;;8.07;3.40;;;8.60;99.90;;;;;;5012752;28;20083;-86
2021/12/17 11:32:44;;;;;;;7.47;2.92;;;8.60;99.90;;;;;;5014116;28;20062;-87
2021/12/17 11:35:10;;;;;;;5.28;2.88;;;8.60;99.90;;;;;;5016963;28;20033;-87
2021/12/17 11:37:37;;;;;;;5.88;2.88;;;8.60;99.90;;;;;;5004091;28;20027;-88
2021/12/17 11:40:08;;;;;;;4.82;2.55;;;8.60;99.90;;;;;;5014274;28;20104;-87
2021/12/17 11:43:00;;;;;;;4.30;2.13;;;8.60;99.90;;;;;;5014948;28;20042;-87
2021/12/17 11:45:27;;;;;;;4.55;2.35;;;8.60;99.90;;;;;;5012677;28;20069;-87
2021/12/17 11:48:11;;;;;;;4.97;2.63;;;8.60;99.90;;;;;;5007302;28;20053;-87
2021/12/17 11:50:36;;;;;;;4.32;1.77;;;8.60;99.90;;;;;;5003330;28;20400;-87
2021/12/17 11:53:20;;;;;;;4.00;2.00;;;8.60;99.90;;;;;;5014557;28;20030;-87
2021/12/17 11:55:55;;;;;;;2.75;1.35;;;8.70;99.90;;;;;;5009006;28;20030;-86
2021/12/17 11:58:43;;;;;;;2.72;1.10;;;8.70;99.90;;;;;;5008793;28;20061;-87
2021/12/17 12:01:09;;;;;;;3.83;1.10;;;8.70;99.90;;;;;;5014123;28;20032;-87
2021/12/17 12:03:35;;;;;;;3.22;1.10;;;8.70;99.90;;;;;;5015941;28;20124;-87
2021/12/17 12:06:00;;;;;;;2.55;0.90;;;8.70;99.90;;;;;;5019838;28;20034;-88
2021/12/17 12:08:50;;;;;;;3.03;0.70;;;8.70;99.90;;;;;;5009046;28;20418;-88
2021/12/17 12:11:22;;;;;;;1.85;0.70;;;8.70;99.90;;;;;;5011204;28;20058;-88
2021/12/17 12:13:51;;;;;;;2.38;0.80;;;8.70;99.90;;;;;;5024117;28;20031;-88
2021/12/17 12:16:21;;;;;;;2.72;1.00;;;8.70;99.90;;;;;;5010460;28;20109;-88
2021/12/17 12:18:57;;;;;;;1.98;0.65;;;8.80;99.90;;;;;;5020608;28;20026;-86
2021/12/17 12:21:33;;;;;;;3.22;0.90;;;8.80;99.90;;;;;;5019249;28;20045;-86
2021/12/17 12:24:16;;;;;;;2.67;0.80;;;8.80;99.90;;;;;;5016729;28;20058;-87
2021/12/17 12:26:49;;;;;;;3.97;1.27;;;8.80;99.90;;;;;;5012982;28;20026;-88
2021/12/17 12:29:18;;;;;;;1.70;0.60;;;8.80;99.90;;;;;;5012938;28;20071;-88
2021/12/17 12:32:05;;;;;;;3.00;0.98;;;8.80;99.90;;;;;;5010418;28;20022;-86
2021/12/17 12:34:37;;;;;;;2.50;0.93;;;8.80;99.90;;;;;;5004094;28;20034;-86
2021/12/17 12:37:09;;;;;;;2.72;1.08;;;8.80;99.90;;;;;;5014998;28;20030;-88
2021/12/17 12:39:43;;;;;;;2.08;0.80;;;8.80;99.90;;;;;;5014599;28;20489;-85
2021/12/17 12:42:17;;;;;;;1.95;0.70;;;8.80;99.90;;;;;;5011267;28;20045;-88
2021/12/17 12:44:46;;;;;;;2.17;0.90;;;8.80;99.90;;;;;;5004637;28;20040;-86
2021/12/17 12:47:29;;;;;;;3.38;1.05;;;8.80;99.90;;;;;;5027492;28;20032;-86
2021/12/17 12:50:12;;;;;;;3.90;1.80;;;8.90;99.90;;;;;;5013852;28;20033;-86
2021/12/17 12:52:43;;;;;;;5.30;1.33;;;8.90;99.90;;;;;;5021206;28;20026;-86
2021/12/17 12:55:30;;;;;;;4.15;1.38;;;8.90;99.90;;;;;;5012343;28;20037;-87
2021/12/17 12:57:59;;;;;;;5.18;1.60;;;8.90;99.90;;;;;;5008582;28;20482;-87
2021/12/17 13:00:47;;;;;;;7.35;2.63;;;8.90;99.90;;;;;;5013651;28;20117;-86
2021/12/17 13:03:17;;;;;;;4.95;2.65;;;8.80;99.90;;;;;;5012738;28;20494;-87
2021/12/17 13:05:45;;;;;;;5.38;2.75;;;8.80;99.90;;;;;;5009342;28;20109;-86
2021/12/17 13:08:14;;;;;;;8.18;3.33;;;8.80;99.90;;;;;;5007753;28;20196;-87
2021/12/17 13:10:44;;;;;;;6.43;3.50;;;8.80;99.90;;;;;;5005931;28;20579;-85
2021/12/17 13:13:20;;;;;;;9.50;3.08;;;8.70;99.90;;;;;;5016914;28;20463;-87
2021/12/17 13:16:01;;;;;;;8.13;3.10;;;8.70;99.90;;;;;;5018125;28;20386;-88
2021/12/17 13:24:13;;;;;;;7.15;3.30;;;8.60;99.90;;;;;;5015368;28;20041;-87
2021/12/17 13:26:48;;;;;;;5.30;3.10;;;8.60;99.90;;;;;;5015358;28;20083;-86
2021/12/17 13:29:18;;;;;;;5.43;2.72;;;8.60;99.90;;;;;;5014803;28;20033;-87
2021/12/17 13:31:50;;;;;;;7.18;3.53;;;8.60;99.90;;;;;;5014650;28;20033;-87
2021/12/17 13:34:31;;;;;;;6.07;3.60;;;8.60;99.90;;;;;;5013009;28;20482;-88
2021/12/17 13:37:02;;;;;;;4.22;2.65;;;8.70;99.90;;;;;;5011390;28;20338;-86
2021/12/17 13:39:37;;;;;;;6.47;3.70;;;8.70;99.90;;;;;;5014919;28;20124;-86
2021/12/17 13:42:04;;;;;;;6.90;3.60;;;8.80;99.90;;;;;;5014096;28;20019;-86
2021/12/17 13:44:54;;;;;;;5.85;3.85;;;8.80;99.90;;;;;;5015975;28;20057;-87
2021/12/17 13:47:40;;;;;;;5.47;3.42;;;8.80;99.90;;;;;;5003971;28;20386;-88
2021/12/17 13:50:08;;;;;;;6.65;3.33;;;8.90;99.90;;;;;;5020371;28;20398;-88
2021/12/17 13:52:37;;;;;;;4.53;3.30;;;8.90;99.90;;;;;;5018867;28;20025;-87
2021/12/17 13:55:06;;;;;;;5.15;3.40;;;8.90;99.90;;;;;;5016288;28;20026;-88
2021/12/17 13:57:44;;;;;;;5.00;3.25;;;8.90;99.90;;;;;;5036431;28;20018;-88
2021/12/17 14:00:20;;;;;;;5.05;2.63;;;9.00;99.90;;;;;;5015657;28;20072;-88
2021/12/17 14:02:47;;;;;;;7.28;3.83;;;9.00;99.90;;;;;;5006122;28;20030;-87
2021/12/17 14:05:24;;;;;;;5.43;3.50;;;9.00;99.90;;;;;;5006764;28;20113;-87
2021/12/17 14:07:52;;;;;;;4.20;3.13;;;9.10;99.90;;;;;;5003427;28;20036;-88
2021/12/17 14:10:23;;;;;;;6.97;3.75;;;9.10;99.90;;;;;;5002585;28;20594;-87
2021/12/17 14:12:49;;;;;;;6.63;3.10;;;9.10;99.90;;;;;;5005762;28;20125;-88
2021/12/17 14:15:20;;;;;;;5.07;3.63;;;9.10;99.90;;;;;;5008771;28;20105;-87
2021/12/17 14:17:49;;;;;;;5.43;3.03;;;9.20;99.90;;;;;;5004970;28;20451;-87
2021/12/17 14:20:22;;;;;;;7.53;3.30;;;9.20;99.90;;;;;;5003566;28;20035;-88
2021/12/17 14:22:50;;;;;;;6.18;3.63;;;9.20;99.90;;;;;;5000547;28;23878;-88
2021/12/17 14:25:40;;;;;;;5.93;3.83;;;9.20;99.90;;;;;;5006734;28;20018;-88
2021/12/17 14:28:25;;;;;;;4.80;3.35;;;9.20;99.90;;;;;;5001762;28;20030;-88
2021/12/17 14:30:56;;;;;;;5.90;3.50;;;9.20;99.90;;;;;;5003427;28;20033;-88
2021/12/17 14:33:31;;;;;;;7.70;4.00;;;9.20;99.90;;;;;;5002855;28;20034;-87
2021/12/17 14:36:01;;;;;;;6.68;4.22;;;9.20;99.90;;;;;;5017245;28;20598;-87
2021/12/17 14:38:52;;;;;;;5.05;3.58;;;9.20;99.90;;;;;;4999769;28;20026;-86
2021/12/17 14:41:24;;;;;;;4.53;3.08;;;9.20;99.90;;;;;;5001641;28;20037;-87
2021/12/17 14:44:03;;;;;;;6.10;3.63;;;9.20;99.90;;;;;;4999903;28;20441;-86
2021/12/17 14:46:45;;;;;;;5.72;3.95;;;9.20;99.90;;;;;;5013560;28;20041;-88
2021/12/17 14:49:27;;;;;;;7.93;4.03;;;9.10;99.90;;;;;;5020435;28;20616;-87
2021/12/17 15:06:41;;;;;;;4.65;3.20;;;9.00;99.90;;;;;;5010466;28;20037;-87
2021/12/17 15:09:07;;;;;;;5.25;3.28;;;9.00;99.90;;;;;;5003404;28;20021;-85
2021/12/17 15:11:37;;;;;;;5.88;3.85;;;9.00;99.90;;;;;;5001676;28;20395;-85
2021/12/17 15:14:03;;;;;;;6.38;3.30;;;9.00;99.90;;;;;;5005804;28;20021;-86
2021/12/17 15:16:29;;;;;;;4.95;2.83;;;9.00;99.90;;;;;;5000497;28;20085;-86
2021/12/17 15:18:54;;;;;;;3.38;2.78;;;9.00;99.90;;;;;;5005844;28;20030;-86
2021/12/17 15:21:20;;;;;;;4.82;3.10;;;8.90;99.90;;;;;;5001437;28;20154;-86
2021/12/17 15:23:45;;;;;;;5.38;2.80;;;9.00;99.90;;;;;;5004782;28;20045;-86
2021/12/17 15:26:11;;;;;;;5.00;3.53;;;9.00;99.90;;;;;;5003590;28;20049;-87
2021/12/17 15:28:36;;;;;;;5.15;3.75;;;9.00;99.90;;;;;;4998204;28;20479;-87
2021/12/17 15:31:06;;;;;;;6.80;3.55;;;8.90;99.90;;;;;;5003926;28;20022;-86
2021/12/17 15:33:33;;;;;;;9.02;4.15;;;9.00;99.90;;;;;;5004083;28;20030;-86
2021/12/17 15:35:59;;;;;;;5.20;3.70;;;9.00;99.90;;;;;;4997885;28;20018;-87
2021/12/17 15:38:25;;;;;;;6.38;3.55;;;8.90;99.90;;;;;;4999352;28;20459;-88
2021/12/17 15:40:51;;;;;;;5.30;3.63;;;8.90;99.90;;;;;;5013656;28;20029;-87
2021/12/17 15:43:19;;;;;;;7.50;3.78;;;8.90;99.90;;;;;;5003375;28;20037;-87
2021/12/17 15:45:47;;;;;;;9.88;4.72;;;8.90;99.90;;;;;;5012352;28;20032;-84
2021/12/17 15:48:15;;;;;;;7.00;4.65;;;8.90;99.90;;;;;;5002707;28;20026;-86
2021/12/17 15:50:41;;;;;;;7.25;4.55;;;8.90;99.90;;;;;;5005176;28;20030;-88
2021/12/17 15:53:08;;;;;;;7.45;4.97;;;8.90;99.90;;;;;;5017203;28;20219;-88
2021/12/17 15:55:34;;;;;;;12.43;4.30;;;9.00;99.90;;;;;;5006049;28;20034;-88